sensor_id;sensor_type;location;lat;lon;timestamp;pressure;altitude;pressure_sealevel;temperature
68127;BMP180;54931;52.098;21.006;2023-10-08T00:01:17;99837.40;;;9.40
68127;BMP180;54931;52.098;21.006;2023-10-08T00:03:47;99835.40;;;9.40
68127;BMP180;54931;52.098;21.006;2023-10-08T00:06:20;99827.60;;;9.40
68127;BMP180;54931;52.098;21.006;2023-10-08T00:08:49;99832.40;;;9.40
68127;BMP180;54931;52.098;21.006;2023-10-08T00:11:18;99836.40;;;9.40
68127;BMP180;54931;52.098;21.006;2023-10-08T00:13:46;99842.80;;;9.40
68127;BMP180;54931;52.098;21.006;2023-10-08T00:16:16;99837.20;;;9.40
68127;BMP180;54931;52.098;21.006;2023-10-08T00:18:45;99835.80;;;9.40
68127;BMP180;54931;52.098;21.006;2023-10-08T00:21:20;99834.40;;;9.42
68127;BMP180;54931;52.098;21.006;2023-10-08T00:23:53;99833.20;;;9.48
68127;BMP180;54931;52.098;21.006;2023-10-08T00:26:27;99828.80;;;9.50
68127;BMP180;54931;52.098;21.006;2023-10-08T00:28:56;99825.00;;;9.50
68127;BMP180;54931;52.098;21.006;2023-10-08T00:31:27;99812.80;;;9.50
68127;BMP180;54931;52.098;21.006;2023-10-08T00:33:58;99811.40;;;9.50
68127;BMP180;54931;52.098;21.006;2023-10-08T00:36:26;99801.40;;;9.50
68127;BMP180;54931;52.098;21.006;2023-10-08T00:38:54;99790.80;;;9.50
68127;BMP180;54931;52.098;21.006;2023-10-08T00:41:27;99787.80;;;9.50
68127;BMP180;54931;52.098;21.006;2023-10-08T00:43:59;99800.60;;;9.48
68127;BMP180;54931;52.098;21.006;2023-10-08T00:46:28;99821.60;;;9.42
68127;BMP180;54931;52.098;21.006;2023-10-08T00:49:02;99832.40;;;9.42
68127;BMP180;54931;52.098;21.006;2023-10-08T00:51:50;99830.60;;;9.40
68127;BMP180;54931;52.098;21.006;2023-10-08T00:54:36;99819.40;;;9.40
68127;BMP180;54931;52.098;21.006;2023-10-08T00:57:26;99812.40;;;9.40
68127;BMP180;54931;52.098;21.006;2023-10-08T00:59:54;99810.80;;;9.40
68127;BMP180;54931;52.098;21.006;2023-10-08T01:02:27;99793.80;;;9.40
68127;BMP180;54931;52.098;21.006;2023-10-08T01:04:56;99799.20;;;9.40
68127;BMP180;54931;52.098;21.006;2023-10-08T01:07:27;99794.60;;;9.40
68127;BMP180;54931;52.098;21.006;2023-10-08T01:09:55;99795.60;;;9.36
68127;BMP180;54931;52.098;21.006;2023-10-08T01:12:27;99807.20;;;9.30
68127;BMP180;54931;52.098;21.006;2023-10-08T01:15:01;99815.80;;;9.30
68127;BMP180;54931;52.098;21.006;2023-10-08T01:17:43;99822.80;;;9.30
68127;BMP180;54931;52.098;21.006;2023-10-08T01:20:30;99820.20;;;9.30
68127;BMP180;54931;52.098;21.006;2023-10-08T01:23:11;99816.40;;;9.30
68127;BMP180;54931;52.098;21.006;2023-10-08T01:25:41;99817.40;;;9.30
68127;BMP180;54931;52.098;21.006;2023-10-08T01:28:10;99816.40;;;9.30
68127;BMP180;54931;52.098;21.006;2023-10-08T01:30:53;99810.60;;;9.30
68127;BMP180;54931;52.098;21.006;2023-10-08T01:33:22;99800.00;;;9.20
68127;BMP180;54931;52.098;21.006;2023-10-08T01:35:50;99787.60;;;9.20
68127;BMP180;54931;52.098;21.006;2023-10-08T01:38:17;99790.60;;;9.18
68127;BMP180;54931;52.098;21.006;2023-10-08T01:40:51;99798.60;;;9.10
68127;BMP180;54931;52.098;21.006;2023-10-08T01:43:19;99800.60;;;9.10
68127;BMP180;54931;52.098;21.006;2023-10-08T01:45:48;99793.20;;;9.10
68127;BMP180;54931;52.098;21.006;2023-10-08T01:48:18;99796.20;;;9.10
68127;BMP180;54931;52.098;21.006;2023-10-08T01:50:47;99807.60;;;9.02
68127;BMP180;54931;52.098;21.006;2023-10-08T01:53:15;99823.00;;;9.00
68127;BMP180;54931;52.098;21.006;2023-10-08T01:55:43;99821.60;;;9.00
68127;BMP180;54931;52.098;21.006;2023-10-08T01:58:21;99837.60;;;9.00
68127;BMP180;54931;52.098;21.006;2023-10-08T02:00:49;99841.60;;;9.00
68127;BMP180;54931;52.098;21.006;2023-10-08T02:03:19;99843.80;;;9.00
68127;BMP180;54931;52.098;21.006;2023-10-08T02:05:46;99849.00;;;9.00
68127;BMP180;54931;52.098;21.006;2023-10-08T02:08:15;99843.40;;;9.00
68127;BMP180;54931;52.098;21.006;2023-10-08T02:10:44;99835.40;;;9.00
68127;BMP180;54931;52.098;21.006;2023-10-08T02:13:15;99826.20;;;9.00
68127;BMP180;54931;52.098;21.006;2023-10-08T02:15:51;99812.60;;;9.00
68127;BMP180;54931;52.098;21.006;2023-10-08T02:18:20;99818.00;;;9.00
68127;BMP180;54931;52.098;21.006;2023-10-08T02:20:51;99826.20;;;9.00
68127;BMP180;54931;52.098;21.006;2023-10-08T02:23:19;99826.00;;;9.00
68127;BMP180;54931;52.098;21.006;2023-10-08T02:25:46;99829.60;;;9.00
68127;BMP180;54931;52.098;21.006;2023-10-08T02:28:15;99831.20;;;9.00
68127;BMP180;54931;52.098;21.006;2023-10-08T02:30:43;99825.40;;;9.00
68127;BMP180;54931;52.098;21.006;2023-10-08T02:33:11;99830.00;;;9.00
68127;BMP180;54931;52.098;21.006;2023-10-08T02:35:46;99845.20;;;9.00
68127;BMP180;54931;52.098;21.006;2023-10-08T02:38:17;99861.60;;;9.00
68127;BMP180;54931;52.098;21.006;2023-10-08T02:40:45;99864.80;;;9.00
68127;BMP180;54931;52.098;21.006;2023-10-08T02:43:15;99875.60;;;9.08
68127;BMP180;54931;52.098;21.006;2023-10-08T02:45:45;99876.20;;;9.10
68127;BMP180;54931;52.098;21.006;2023-10-08T02:48:16;99870.20;;;9.10
68127;BMP180;54931;52.098;21.006;2023-10-08T02:50:45;99872.80;;;9.10
68127;BMP180;54931;52.098;21.006;2023-10-08T02:53:14;99887.40;;;9.10
68127;BMP180;54931;52.098;21.006;2023-10-08T02:55:50;99884.60;;;9.10
68127;BMP180;54931;52.098;21.006;2023-10-08T02:58:18;99888.40;;;9.10
68127;BMP180;54931;52.098;21.006;2023-10-08T03:00:49;99888.40;;;9.10
68127;BMP180;54931;52.098;21.006;2023-10-08T03:03:18;99892.60;;;9.12
68127;BMP180;54931;52.098;21.006;2023-10-08T03:05:56;99891.60;;;9.20
68127;BMP180;54931;52.098;21.006;2023-10-08T03:08:24;99895.40;;;9.20
68127;BMP180;54931;52.098;21.006;2023-10-08T03:10:53;99900.40;;;9.20
68127;BMP180;54931;52.098;21.006;2023-10-08T03:13:25;99897.60;;;9.20
68127;BMP180;54931;52.098;21.006;2023-10-08T03:15:54;99891.60;;;9.20
68127;BMP180;54931;52.098;21.006;2023-10-08T03:18:30;99892.00;;;9.20
68127;BMP180;54931;52.098;21.006;2023-10-08T03:21:09;99896.60;;;9.20
68127;BMP180;54931;52.098;21.006;2023-10-08T03:23:49;99902.20;;;9.20
68127;BMP180;54931;52.098;21.006;2023-10-08T03:26:24;99900.80;;;9.20
68127;BMP180;54931;52.098;21.006;2023-10-08T03:29:02;99907.40;;;9.20
68127;BMP180;54931;52.098;21.006;2023-10-08T03:31:34;99905.80;;;9.20
68127;BMP180;54931;52.098;21.006;2023-10-08T03:34:31;99906.80;;;9.10
68127;BMP180;54931;52.098;21.006;2023-10-08T03:37:02;99912.20;;;9.10
68127;BMP180;54931;52.098;21.006;2023-10-08T03:39:34;99927.80;;;9.10
68127;BMP180;54931;52.098;21.006;2023-10-08T03:42:31;99918.80;;;9.10
68127;BMP180;54931;52.098;21.006;2023-10-08T03:45:03;99924.60;;;9.10
68127;BMP180;54931;52.098;21.006;2023-10-08T03:47:39;99937.00;;;9.10
68127;BMP180;54931;52.098;21.006;2023-10-08T03:50:09;99940.20;;;9.10
68127;BMP180;54931;52.098;21.006;2023-10-08T03:52:37;99942.40;;;9.10
68127;BMP180;54931;52.098;21.006;2023-10-08T03:55:06;99940.20;;;9.10
68127;BMP180;54931;52.098;21.006;2023-10-08T03:57:46;99941.00;;;9.10
68127;BMP180;54931;52.098;21.006;2023-10-08T04:00:17;99949.00;;;9.10
68127;BMP180;54931;52.098;21.006;2023-10-08T04:02:56;99964.80;;;9.08
68127;BMP180;54931;52.098;21.006;2023-10-08T04:05:28;99966.80;;;9.00
68127;BMP180;54931;52.098;21.006;2023-10-08T04:08:11;99962.20;;;9.00
68127;BMP180;54931;52.098;21.006;2023-10-08T04:10:44;99963.80;;;9.00
68127;BMP180;54931;52.098;21.006;2023-10-08T04:13:12;99967.00;;;8.90
68127;BMP180;54931;52.098;21.006;2023-10-08T04:15:43;99977.60;;;8.90
68127;BMP180;54931;52.098;21.006;2023-10-08T04:18:11;99972.60;;;8.80
68127;BMP180;54931;52.098;21.006;2023-10-08T04:20:40;99978.20;;;8.80
68127;BMP180;54931;52.098;21.006;2023-10-08T04:23:28;99979.00;;;8.80
68127;BMP180;54931;52.098;21.006;2023-10-08T04:25:57;99981.60;;;8.70
68127;BMP180;54931;52.098;21.006;2023-10-08T04:28:24;99988.00;;;8.70
68127;BMP180;54931;52.098;21.006;2023-10-08T04:30:56;99995.60;;;8.60
68127;BMP180;54931;52.098;21.006;2023-10-08T04:33:29;100003.80;;;8.60
68127;BMP180;54931;52.098;21.006;2023-10-08T04:36:01;100012.80;;;8.50
68127;BMP180;54931;52.098;21.006;2023-10-08T04:38:30;100017.20;;;8.40
68127;BMP180;54931;52.098;21.006;2023-10-08T04:41:03;100022.80;;;8.34
68127;BMP180;54931;52.098;21.006;2023-10-08T04:43:36;100024.40;;;8.28
68127;BMP180;54931;52.098;21.006;2023-10-08T04:46:10;100027.80;;;8.20
68127;BMP180;54931;52.098;21.006;2023-10-08T04:48:49;100033.80;;;8.16
68127;BMP180;54931;52.098;21.006;2023-10-08T04:51:20;100040.00;;;8.10
68127;BMP180;54931;52.098;21.006;2023-10-08T04:53:50;100034.40;;;8.10
68127;BMP180;54931;52.098;21.006;2023-10-08T04:56:17;100043.40;;;8.10
68127;BMP180;54931;52.098;21.006;2023-10-08T04:58:47;100047.40;;;8.10
68127;BMP180;54931;52.098;21.006;2023-10-08T05:01:19;100050.00;;;8.10
68127;BMP180;54931;52.098;21.006;2023-10-08T05:03:49;100052.00;;;8.00
68127;BMP180;54931;52.098;21.006;2023-10-08T05:06:35;100057.60;;;7.96
68127;BMP180;54931;52.098;21.006;2023-10-08T05:09:12;100059.20;;;7.88
68127;BMP180;54931;52.098;21.006;2023-10-08T05:11:47;100065.00;;;7.80
68127;BMP180;54931;52.098;21.006;2023-10-08T05:14:21;100065.00;;;7.74
68127;BMP180;54931;52.098;21.006;2023-10-08T05:16:56;100064.80;;;7.70
68127;BMP180;54931;52.098;21.006;2023-10-08T05:19:44;100064.40;;;7.60
68127;BMP180;54931;52.098;21.006;2023-10-08T05:22:43;100076.60;;;7.52
68127;BMP180;54931;52.098;21.006;2023-10-08T05:25:11;100077.60;;;7.50
68127;BMP180;54931;52.098;21.006;2023-10-08T05:27:44;100079.80;;;7.40
68127;BMP180;54931;52.098;21.006;2023-10-08T05:30:15;100079.00;;;7.40
68127;BMP180;54931;52.098;21.006;2023-10-08T05:33:05;100088.60;;;7.30
68127;BMP180;54931;52.098;21.006;2023-10-08T05:35:37;100092.40;;;7.30
68127;BMP180;54931;52.098;21.006;2023-10-08T05:38:11;100091.80;;;7.30
68127;BMP180;54931;52.098;21.006;2023-10-08T05:40:58;100097.40;;;7.30
68127;BMP180;54931;52.098;21.006;2023-10-08T05:43:33;100097.00;;;7.30
68127;BMP180;54931;52.098;21.006;2023-10-08T05:46:21;100109.20;;;7.40
68127;BMP180;54931;52.098;21.006;2023-10-08T05:48:59;100122.00;;;7.40
68127;BMP180;54931;52.098;21.006;2023-10-08T05:51:40;100129.80;;;7.50
68127;BMP180;54931;52.098;21.006;2023-10-08T05:54:24;100131.60;;;7.50
68127;BMP180;54931;52.098;21.006;2023-10-08T05:57:13;100136.60;;;7.60
68127;BMP180;54931;52.098;21.006;2023-10-08T05:59:47;100141.20;;;7.88
68127;BMP180;54931;52.098;21.006;2023-10-08T06:02:28;100149.60;;;8.40
68127;BMP180;54931;52.098;21.006;2023-10-08T06:05:09;100156.20;;;8.94
68127;BMP180;54931;52.098;21.006;2023-10-08T06:07:44;100161.00;;;9.34
68127;BMP180;54931;52.098;21.006;2023-10-08T06:10:19;100164.00;;;9.70
68127;BMP180;54931;52.098;21.006;2023-10-08T06:15:58;100178.60;;;10.20
68127;BMP180;54931;52.098;21.006;2023-10-08T06:18:28;100187.40;;;10.40
68127;BMP180;54931;52.098;21.006;2023-10-08T06:21:00;100192.60;;;10.70
68127;BMP180;54931;52.098;21.006;2023-10-08T06:23:29;100198.00;;;10.90
68127;BMP180;54931;52.098;21.006;2023-10-08T06:25:59;100200.00;;;11.26
68127;BMP180;54931;52.098;21.006;2023-10-08T06:28:33;100208.80;;;11.40
68127;BMP180;54931;52.098;21.006;2023-10-08T06:31:05;100214.00;;;11.34
68127;BMP180;54931;52.098;21.006;2023-10-08T06:33:42;100229.00;;;11.58
68127;BMP180;54931;52.098;21.006;2023-10-08T06:36:11;100234.40;;;11.70
68127;BMP180;54931;52.098;21.006;2023-10-08T06:38:44;100235.20;;;11.68
68127;BMP180;54931;52.098;21.006;2023-10-08T06:41:17;100247.20;;;11.76
68127;BMP180;54931;52.098;21.006;2023-10-08T06:43:48;100238.80;;;11.78
68127;BMP180;54931;52.098;21.006;2023-10-08T06:46:30;100255.00;;;11.62
68127;BMP180;54931;52.098;21.006;2023-10-08T06:49:02;100266.00;;;11.94
68127;BMP180;54931;52.098;21.006;2023-10-08T06:51:31;100267.80;;;12.20
68127;BMP180;54931;52.098;21.006;2023-10-08T06:54:00;100271.20;;;12.20
68127;BMP180;54931;52.098;21.006;2023-10-08T06:56:30;100272.80;;;12.10
68127;BMP180;54931;52.098;21.006;2023-10-08T06:59:01;100276.20;;;12.40
68127;BMP180;54931;52.098;21.006;2023-10-08T07:01:29;100275.40;;;12.60
68127;BMP180;54931;52.098;21.006;2023-10-08T07:04:06;100279.80;;;12.64
68127;BMP180;54931;52.098;21.006;2023-10-08T07:06:43;100274.40;;;12.60
68127;BMP180;54931;52.098;21.006;2023-10-08T07:09:13;100278.80;;;12.40
68127;BMP180;54931;52.098;21.006;2023-10-08T07:12:10;100290.40;;;12.30
68127;BMP180;54931;52.098;21.006;2023-10-08T07:14:41;100299.40;;;12.40
68127;BMP180;54931;52.098;21.006;2023-10-08T07:17:09;100297.60;;;12.68
68127;BMP180;54931;52.098;21.006;2023-10-08T07:19:39;100306.80;;;12.60
68127;BMP180;54931;52.098;21.006;2023-10-08T07:22:09;100313.20;;;12.68
68127;BMP180;54931;52.098;21.006;2023-10-08T07:24:49;100321.60;;;12.86
68127;BMP180;54931;52.098;21.006;2023-10-08T07:27:19;100335.40;;;13.10
68127;BMP180;54931;52.098;21.006;2023-10-08T07:29:57;100339.40;;;13.04
68127;BMP180;54931;52.098;21.006;2023-10-08T07:32:28;100329.20;;;12.82
68127;BMP180;54931;52.098;21.006;2023-10-08T07:34:57;100339.20;;;12.90
68127;BMP180;54931;52.098;21.006;2023-10-08T07:37:42;100348.20;;;13.14
68127;BMP180;54931;52.098;21.006;2023-10-08T07:40:11;100343.80;;;13.30
68127;BMP180;54931;52.098;21.006;2023-10-08T07:42:40;100344.60;;;13.40
68127;BMP180;54931;52.098;21.006;2023-10-08T07:45:09;100350.00;;;13.50
68127;BMP180;54931;52.098;21.006;2023-10-08T07:47:38;100349.80;;;13.42
68127;BMP180;54931;52.098;21.006;2023-10-08T07:50:07;100360.60;;;13.50
68127;BMP180;54931;52.098;21.006;2023-10-08T07:52:39;100370.20;;;13.60
68127;BMP180;54931;52.098;21.006;2023-10-08T07:55:11;100376.00;;;13.60
68127;BMP180;54931;52.098;21.006;2023-10-08T07:57:44;100375.00;;;13.40
68127;BMP180;54931;52.098;21.006;2023-10-08T08:00:13;100383.00;;;13.52
68127;BMP180;54931;52.098;21.006;2023-10-08T08:02:51;100382.60;;;13.50
68127;BMP180;54931;52.098;21.006;2023-10-08T08:05:20;100390.40;;;13.50
68127;BMP180;54931;52.098;21.006;2023-10-08T08:07:47;100386.40;;;13.50
68127;BMP180;54931;52.098;21.006;2023-10-08T08:10:20;100384.40;;;13.30
68127;BMP180;54931;52.098;21.006;2023-10-08T08:12:50;100389.40;;;13.20
68127;BMP180;54931;52.098;21.006;2023-10-08T08:15:23;100393.00;;;13.20
68127;BMP180;54931;52.098;21.006;2023-10-08T08:17:54;100393.60;;;13.30
68127;BMP180;54931;52.098;21.006;2023-10-08T08:20:23;100389.40;;;13.22
68127;BMP180;54931;52.098;21.006;2023-10-08T08:23:02;100407.20;;;13.18
68127;BMP180;54931;52.098;21.006;2023-10-08T08:25:39;100402.40;;;13.16
68127;BMP180;54931;52.098;21.006;2023-10-08T08:28:14;100412.40;;;13.14
68127;BMP180;54931;52.098;21.006;2023-10-08T08:30:45;100409.60;;;13.36
68127;BMP180;54931;52.098;21.006;2023-10-08T08:33:14;100415.80;;;13.52
68127;BMP180;54931;52.098;21.006;2023-10-08T08:36:02;100406.20;;;13.46
68127;BMP180;54931;52.098;21.006;2023-10-08T08:38:33;100415.40;;;13.30
68127;BMP180;54931;52.098;21.006;2023-10-08T08:41:04;100416.60;;;13.46
68127;BMP180;54931;52.098;21.006;2023-10-08T08:43:36;100419.80;;;13.60
68127;BMP180;54931;52.098;21.006;2023-10-08T08:46:04;100423.80;;;13.52
68127;BMP180;54931;52.098;21.006;2023-10-08T08:48:44;100428.00;;;13.48
68127;BMP180;54931;52.098;21.006;2023-10-08T08:51:15;100427.00;;;13.40
68127;BMP180;54931;52.098;21.006;2023-10-08T08:53:43;100427.00;;;13.42
68127;BMP180;54931;52.098;21.006;2023-10-08T08:56:12;100432.20;;;13.50
68127;BMP180;54931;52.098;21.006;2023-10-08T08:58:41;100431.20;;;13.60
68127;BMP180;54931;52.098;21.006;2023-10-08T09:01:12;100430.00;;;13.80
68127;BMP180;54931;52.098;21.006;2023-10-08T09:03:41;100431.20;;;13.80
68127;BMP180;54931;52.098;21.006;2023-10-08T09:06:09;100430.80;;;13.66
68127;BMP180;54931;52.098;21.006;2023-10-08T09:08:38;100444.40;;;13.60
68127;BMP180;54931;52.098;21.006;2023-10-08T09:11:15;100443.20;;;13.60
68127;BMP180;54931;52.098;21.006;2023-10-08T09:13:43;100424.60;;;13.38
68127;BMP180;54931;52.098;21.006;2023-10-08T09:16:15;100446.20;;;13.34
68127;BMP180;54931;52.098;21.006;2023-10-08T09:18:44;100445.40;;;13.58
68127;BMP180;54931;52.098;21.006;2023-10-08T09:21:19;100445.00;;;13.76
68127;BMP180;54931;52.098;21.006;2023-10-08T09:23:51;100453.40;;;13.90
68127;BMP180;54931;52.098;21.006;2023-10-08T09:26:22;100456.20;;;13.90
68127;BMP180;54931;52.098;21.006;2023-10-08T09:28:52;100464.80;;;14.00
68127;BMP180;54931;52.098;21.006;2023-10-08T09:31:23;100469.80;;;14.00
68127;BMP180;54931;52.098;21.006;2023-10-08T09:33:55;100457.20;;;13.90
68127;BMP180;54931;52.098;21.006;2023-10-08T09:36:23;100473.00;;;13.70
68127;BMP180;54931;52.098;21.006;2023-10-08T09:39:03;100472.40;;;13.60
68127;BMP180;54931;52.098;21.006;2023-10-08T09:41:34;100471.20;;;13.60
68127;BMP180;54931;52.098;21.006;2023-10-08T09:44:05;100474.60;;;13.50
68127;BMP180;54931;52.098;21.006;2023-10-08T09:46:35;100463.00;;;13.30
68127;BMP180;54931;52.098;21.006;2023-10-08T09:49:06;100473.80;;;13.10
68127;BMP180;54931;52.098;21.006;2023-10-08T09:51:39;100480.20;;;13.14
68127;BMP180;54931;52.098;21.006;2023-10-08T09:54:18;100483.80;;;13.08
68127;BMP180;54931;52.098;21.006;2023-10-08T09:56:48;100488.00;;;13.10
68127;BMP180;54931;52.098;21.006;2023-10-08T09:59:16;100482.20;;;13.18
68127;BMP180;54931;52.098;21.006;2023-10-08T10:01:48;100476.20;;;13.10
68127;BMP180;54931;52.098;21.006;2023-10-08T10:04:23;100483.80;;;12.92
68127;BMP180;54931;52.098;21.006;2023-10-08T10:06:52;100479.60;;;12.80
68127;BMP180;54931;52.098;21.006;2023-10-08T10:09:22;100496.00;;;12.80
68127;BMP180;54931;52.098;21.006;2023-10-08T10:11:54;100500.80;;;12.70
68127;BMP180;54931;52.098;21.006;2023-10-08T10:14:24;100502.20;;;12.60
68127;BMP180;54931;52.098;21.006;2023-10-08T10:17:14;100501.80;;;12.40
68127;BMP180;54931;52.098;21.006;2023-10-08T10:19:56;100498.60;;;12.30
68127;BMP180;54931;52.098;21.006;2023-10-08T10:22:30;100500.20;;;12.30
68127;BMP180;54931;52.098;21.006;2023-10-08T10:24:59;100497.00;;;12.30
68127;BMP180;54931;52.098;21.006;2023-10-08T10:27:31;100501.40;;;12.10
68127;BMP180;54931;52.098;21.006;2023-10-08T10:30:04;100511.80;;;12.10
68127;BMP180;54931;52.098;21.006;2023-10-08T10:32:46;100499.80;;;12.10
68127;BMP180;54931;52.098;21.006;2023-10-08T10:35:17;100501.20;;;11.90
68127;BMP180;54931;52.098;21.006;2023-10-08T10:37:47;100506.40;;;11.78
68127;BMP180;54931;52.098;21.006;2023-10-08T10:40:24;100501.40;;;11.80
68127;BMP180;54931;52.098;21.006;2023-10-08T10:43:08;100497.20;;;11.80
68127;BMP180;54931;52.098;21.006;2023-10-08T10:45:43;100490.80;;;11.70
68127;BMP180;54931;52.098;21.006;2023-10-08T10:48:11;100502.80;;;11.60
68127;BMP180;54931;52.098;21.006;2023-10-08T10:50:50;100508.80;;;11.60
68127;BMP180;54931;52.098;21.006;2023-10-08T10:53:39;100500.80;;;11.68
68127;BMP180;54931;52.098;21.006;2023-10-08T10:56:25;100502.00;;;11.70
68127;BMP180;54931;52.098;21.006;2023-10-08T10:59:01;100509.00;;;11.70
68127;BMP180;54931;52.098;21.006;2023-10-08T11:01:49;100494.20;;;11.70
68127;BMP180;54931;52.098;21.006;2023-10-08T11:04:19;100507.20;;;11.80
68127;BMP180;54931;52.098;21.006;2023-10-08T11:06:57;100495.60;;;11.74
68127;BMP180;54931;52.098;21.006;2023-10-08T11:09:27;100507.80;;;11.60
68127;BMP180;54931;52.098;21.006;2023-10-08T11:12:08;100510.40;;;11.60
68127;BMP180;54931;52.098;21.006;2023-10-08T11:14:39;100511.40;;;11.60
68127;BMP180;54931;52.098;21.006;2023-10-08T11:17:13;100503.60;;;11.52
68127;BMP180;54931;52.098;21.006;2023-10-08T11:19:43;100511.80;;;11.50
68127;BMP180;54931;52.098;21.006;2023-10-08T11:22:15;100505.60;;;11.54
68127;BMP180;54931;52.098;21.006;2023-10-08T11:24:46;100515.00;;;11.50
68127;BMP180;54931;52.098;21.006;2023-10-08T11:27:21;100522.00;;;11.60
68127;BMP180;54931;52.098;21.006;2023-10-08T11:30:07;100521.20;;;11.60
68127;BMP180;54931;52.098;21.006;2023-10-08T11:32:38;100521.20;;;11.60
68127;BMP180;54931;52.098;21.006;2023-10-08T11:35:15;100518.60;;;11.50
68127;BMP180;54931;52.098;21.006;2023-10-08T11:37:47;100516.20;;;11.50
68127;BMP180;54931;52.098;21.006;2023-10-08T11:40:26;100522.60;;;11.58
68127;BMP180;54931;52.098;21.006;2023-10-08T11:43:15;100520.00;;;11.70
68127;BMP180;54931;52.098;21.006;2023-10-08T11:45:46;100520.80;;;11.78
68127;BMP180;54931;52.098;21.006;2023-10-08T11:48:17;100514.60;;;11.70
68127;BMP180;54931;52.098;21.006;2023-10-08T11:50:49;100510.80;;;11.60
68127;BMP180;54931;52.098;21.006;2023-10-08T11:53:18;100516.80;;;11.50
68127;BMP180;54931;52.098;21.006;2023-10-08T11:55:48;100517.00;;;11.50
68127;BMP180;54931;52.098;21.006;2023-10-08T11:58:16;100528.80;;;11.50
68127;BMP180;54931;52.098;21.006;2023-10-08T12:00:47;100518.00;;;11.60
68127;BMP180;54931;52.098;21.006;2023-10-08T12:03:19;100517.60;;;11.60
68127;BMP180;54931;52.098;21.006;2023-10-08T12:05:48;100524.80;;;11.70
68127;BMP180;54931;52.098;21.006;2023-10-08T12:08:19;100527.20;;;11.70
68127;BMP180;54931;52.098;21.006;2023-10-08T12:10:49;100523.20;;;11.80
68127;BMP180;54931;52.098;21.006;2023-10-08T12:13:21;100515.60;;;11.80
68127;BMP180;54931;52.098;21.006;2023-10-08T12:15:55;100542.40;;;11.90
68127;BMP180;54931;52.098;21.006;2023-10-08T12:18:40;100532.20;;;11.90
68127;BMP180;54931;52.098;21.006;2023-10-08T12:21:08;100532.40;;;11.90
68127;BMP180;54931;52.098;21.006;2023-10-08T12:23:42;100526.20;;;11.90
68127;BMP180;54931;52.098;21.006;2023-10-08T12:26:11;100522.60;;;11.90
68127;BMP180;54931;52.098;21.006;2023-10-08T12:28:43;100536.40;;;11.90
68127;BMP180;54931;52.098;21.006;2023-10-08T12:31:18;100540.40;;;12.00
68127;BMP180;54931;52.098;21.006;2023-10-08T12:33:52;100538.20;;;12.00
68127;BMP180;54931;52.098;21.006;2023-10-08T12:36:21;100536.60;;;12.00
68127;BMP180;54931;52.098;21.006;2023-10-08T12:38:54;100537.20;;;11.90
68127;BMP180;54931;52.098;21.006;2023-10-08T12:41:26;100548.20;;;11.90
68127;BMP180;54931;52.098;21.006;2023-10-08T12:43:58;100542.80;;;11.80
68127;BMP180;54931;52.098;21.006;2023-10-08T12:46:26;100550.40;;;11.70
68127;BMP180;54931;52.098;21.006;2023-10-08T12:48:58;100547.20;;;11.50
68127;BMP180;54931;52.098;21.006;2023-10-08T12:51:30;100557.40;;;11.36
68127;BMP180;54931;52.098;21.006;2023-10-08T12:54:02;100539.40;;;11.24
68127;BMP180;54931;52.098;21.006;2023-10-08T12:56:35;100550.20;;;11.40
68127;BMP180;54931;52.098;21.006;2023-10-08T12:59:05;100552.80;;;11.46
68127;BMP180;54931;52.098;21.006;2023-10-08T13:01:36;100551.60;;;11.60
68127;BMP180;54931;52.098;21.006;2023-10-08T13:04:08;100552.80;;;11.60
68127;BMP180;54931;52.098;21.006;2023-10-08T13:06:44;100555.60;;;11.50
68127;BMP180;54931;52.098;21.006;2023-10-08T13:09:12;100557.60;;;11.50
68127;BMP180;54931;52.098;21.006;2023-10-08T13:11:40;100559.00;;;11.68
68127;BMP180;54931;52.098;21.006;2023-10-08T13:14:10;100557.20;;;11.70
68127;BMP180;54931;52.098;21.006;2023-10-08T13:16:39;100561.80;;;11.80
68127;BMP180;54931;52.098;21.006;2023-10-08T13:19:07;100561.40;;;11.90
68127;BMP180;54931;52.098;21.006;2023-10-08T13:21:36;100569.00;;;11.80
68127;BMP180;54931;52.098;21.006;2023-10-08T13:24:07;100560.20;;;11.80
68127;BMP180;54931;52.098;21.006;2023-10-08T13:26:37;100578.60;;;11.60
68127;BMP180;54931;52.098;21.006;2023-10-08T13:29:06;100586.20;;;11.40
68127;BMP180;54931;52.098;21.006;2023-10-08T13:31:33;100578.60;;;11.24
68127;BMP180;54931;52.098;21.006;2023-10-08T13:34:04;100582.60;;;11.10
68127;BMP180;54931;52.098;21.006;2023-10-08T13:36:36;100578.80;;;11.10
68127;BMP180;54931;52.098;21.006;2023-10-08T13:39:07;100572.00;;;11.20
68127;BMP180;54931;52.098;21.006;2023-10-08T13:41:37;100581.40;;;11.20
68127;BMP180;54931;52.098;21.006;2023-10-08T13:44:09;100588.40;;;11.30
68127;BMP180;54931;52.098;21.006;2023-10-08T13:46:37;100591.80;;;11.40
68127;BMP180;54931;52.098;21.006;2023-10-08T13:49:08;100598.60;;;11.50
68127;BMP180;54931;52.098;21.006;2023-10-08T13:51:37;100587.20;;;11.50
68127;BMP180;54931;52.098;21.006;2023-10-08T13:54:06;100594.80;;;11.40
68127;BMP180;54931;52.098;21.006;2023-10-08T13:56:34;100592.20;;;11.50
68127;BMP180;54931;52.098;21.006;2023-10-08T13:59:05;100595.60;;;11.50
68127;BMP180;54931;52.098;21.006;2023-10-08T14:01:45;100591.00;;;11.50
68127;BMP180;54931;52.098;21.006;2023-10-08T14:04:19;100591.00;;;11.40
68127;BMP180;54931;52.098;21.006;2023-10-08T14:06:47;100591.60;;;11.40
68127;BMP180;54931;52.098;21.006;2023-10-08T14:09:19;100593.80;;;11.40
68127;BMP180;54931;52.098;21.006;2023-10-08T14:11:58;100596.60;;;11.30
68127;BMP180;54931;52.098;21.006;2023-10-08T14:14:27;100598.00;;;11.26
68127;BMP180;54931;52.098;21.006;2023-10-08T14:16:59;100603.00;;;11.20
68127;BMP180;54931;52.098;21.006;2023-10-08T14:19:37;100584.00;;;11.20
68127;BMP180;54931;52.098;21.006;2023-10-08T14:22:14;100596.60;;;11.20
68127;BMP180;54931;52.098;21.006;2023-10-08T14:24:43;100604.40;;;11.18
68127;BMP180;54931;52.098;21.006;2023-10-08T14:27:12;100605.80;;;11.10
68127;BMP180;54931;52.098;21.006;2023-10-08T14:29:42;100610.60;;;11.10